Time;durP1;ratioP1;P1;durP2;ratioP2;P2;SDS_P1;SDS_P2;PMS_P1;PMS_P2;Temp;Humidity;BMP_temperature;BMP_pressure;BME280_temperature;BME280_humidity;BME280_pressure;Samples;Min_cycle;Max_cycle;Signal;HPM_P1;HPM_P2
2022/08/25 00:00:28;;;;;;;4.13;2.63;;;24.20;79.50;;;;;;5052079;28;20056;-84
2022/08/25 00:02:54;;;;;;;5.30;2.88;;;24.20;79.60;;;;;;5051677;28;20033;-84
2022/08/25 00:05:21;;;;;;;4.68;2.42;;;24.20;79.70;;;;;;5051347;28;20025;-84
2022/08/25 00:07:46;;;;;;;4.25;2.63;;;24.10;79.80;;;;;;5052432;28;20028;-84
2022/08/25 00:10:12;;;;;;;6.18;2.85;;;24.10;79.90;;;;;;5050969;28;20086;-84
2022/08/25 00:12:38;;;;;;;4.68;2.70;;;24.00;79.90;;;;;;5034628;28;20481;-84
2022/08/25 00:15:04;;;;;;;5.15;2.92;;;24.00;80.00;;;;;;5051252;28;20029;-84
2022/08/25 00:17:30;;;;;;;5.05;3.00;;;24.00;80.00;;;;;;5052199;28;20511;-84
2022/08/25 00:19:56;;;;;;;4.65;3.00;;;24.00;80.00;;;;;;5051988;28;20061;-82
2022/08/25 00:22:22;;;;;;;4.88;2.75;;;24.00;80.10;;;;;;5051004;28;20071;-82
2022/08/25 00:24:47;;;;;;;5.28;2.92;;;23.90;80.00;;;;;;5052324;28;20025;-82
2022/08/25 00:27:13;;;;;;;5.38;2.70;;;23.90;80.10;;;;;;5050810;28;20476;-82
2022/08/25 00:29:39;;;;;;;4.32;2.80;;;23.90;80.30;;;;;;5052096;28;20396;-84
2022/08/25 00:32:05;;;;;;;3.70;2.60;;;23.90;80.30;;;;;;5052216;28;20370;-84
2022/08/25 00:34:34;;;;;;;4.00;2.45;;;23.90;80.30;;;;;;5051989;28;20037;-84
2022/08/25 00:37:02;;;;;;;4.03;2.65;;;23.80;80.10;;;;;;5051845;28;20037;-85
2022/08/25 00:39:29;;;;;;;3.90;2.63;;;23.80;80.10;;;;;;5050656;28;20067;-82
2022/08/25 00:41:56;;;;;;;5.15;2.60;;;23.80;80.00;;;;;;5051818;28;20053;-85
2022/08/25 00:44:24;;;;;;;4.90;2.40;;;23.90;80.50;;;;;;5034102;28;20044;-85
2022/08/25 00:46:57;;;;;;;5.00;2.88;;;23.90;79.40;;;;;;5050497;28;20081;-84
2022/08/25 00:49:37;;;;;;;5.70;2.78;;;23.90;79.10;;;;;;5050310;28;20028;-84
2022/08/25 00:52:06;;;;;;;5.18;2.58;;;24.00;78.30;;;;;;5050688;28;20094;-84
2022/08/25 00:54:40;;;;;;;3.67;2.50;;;23.90;78.40;;;;;;5051628;28;20037;-84
2022/08/25 00:57:09;;;;;;;7.32;3.00;;;24.00;78.50;;;;;;5051438;28;20531;-84
2022/08/25 00:59:35;;;;;;;5.22;3.00;;;23.90;78.40;;;;;;5051356;28;20063;-84
2022/08/25 01:02:01;;;;;;;6.78;2.70;;;23.90;78.50;;;;;;5051684;28;20132;-84
2022/08/25 01:04:28;;;;;;;7.00;3.33;;;23.90;78.60;;;;;;5051630;28;20032;-84
2022/08/25 01:06:56;;;;;;;5.38;2.72;;;23.90;79.40;;;;;;5051330;28;20029;-84
2022/08/25 01:09:22;;;;;;;5.95;3.00;;;23.80;79.00;;;;;;5050003;28;20044;-84
2022/08/25 01:11:48;;;;;;;4.57;2.40;;;23.80;79.30;;;;;;5050692;28;20025;-84
2022/08/25 01:14:16;;;;;;;5.60;2.50;;;23.80;79.60;;;;;;5050923;28;20103;-84
2022/08/25 01:16:42;;;;;;;5.55;2.40;;;23.70;79.80;;;;;;5051120;28;20125;-84
2022/08/25 01:19:12;;;;;;;7.63;2.70;;;23.60;80.00;;;;;;5050958;28;20033;-84
2022/08/25 01:21:47;;;;;;;7.57;3.00;;;23.60;80.30;;;;;;5049909;28;20512;-83
2022/08/25 01:24:25;;;;;;;4.93;2.53;;;23.50;80.60;;;;;;5051662;28;20025;-84
2022/08/25 01:26:51;;;;;;;7.38;3.40;;;23.50;81.00;;;;;;5050922;28;20051;-84
2022/08/25 01:29:19;;;;;;;6.32;2.90;;;23.40;81.40;;;;;;5051078;28;20033;-84
2022/08/25 01:31:46;;;;;;;5.72;2.80;;;23.40;82.10;;;;;;5049837;28;20128;-84
2022/08/25 01:34:14;;;;;;;3.92;2.70;;;23.30;82.70;;;;;;5050778;28;20033;-83
2022/08/25 01:36:42;;;;;;;7.05;2.95;;;23.30;83.00;;;;;;5062408;23;20053;-72
2022/08/25 01:39:09;;;;;;;5.18;2.50;;;23.20;83.60;;;;;;5051412;28;20060;-72
2022/08/25 01:41:49;;;;;;;7.00;2.65;;;23.20;83.90;;;;;;5051277;28;20098;-72
2022/08/25 01:44:16;;;;;;;5.60;2.40;;;23.10;84.20;;;;;;5051307;28;20043;-72
2022/08/25 01:46:43;;;;;;;5.88;2.53;;;23.10;84.40;;;;;;5051417;28;20033;-72
2022/08/25 01:49:09;;;;;;;4.78;2.83;;;23.00;84.60;;;;;;5051135;28;20556;-72
2022/08/25 01:51:52;;;;;;;6.72;2.70;;;23.00;84.70;;;;;;5051032;28;20119;-72
2022/08/25 01:54:18;;;;;;;3.85;2.78;;;23.00;84.90;;;;;;5051225;28;20116;-72
2022/08/25 01:56:44;;;;;;;6.75;2.60;;;22.90;84.90;;;;;;5050962;28;20075;-72
2022/08/25 01:59:10;;;;;;;5.30;2.85;;;22.90;84.80;;;;;;5051284;28;20032;-72
2022/08/25 02:01:36;;;;;;;4.20;2.60;;;22.90;85.00;;;;;;5051231;28;20029;-72
2022/08/25 02:04:03;;;;;;;4.25;2.70;;;22.90;85.30;;;;;;5049932;28;20036;-72
2022/08/25 02:06:32;;;;;;;4.82;2.83;;;22.80;85.50;;;;;;5051048;28;20029;-72
2022/08/25 02:09:08;;;;;;;6.40;3.10;;;22.80;85.70;;;;;;5051013;28;20033;-72
2022/08/25 02:11:37;;;;;;;5.38;2.63;;;22.80;85.70;;;;;;5050790;28;20104;-72
2022/08/25 02:14:04;;;;;;;4.43;2.60;;;22.70;85.70;;;;;;5050081;28;20098;-72
2022/08/25 02:16:34;;;;;;;5.25;2.67;;;22.70;85.80;;;;;;5050642;28;20107;-72
2022/08/25 02:19:01;;;;;;;4.13;2.50;;;22.70;85.90;;;;;;5049809;28;20048;-72
2022/08/25 02:21:27;;;;;;;4.60;2.65;;;22.60;86.00;;;;;;5049304;28;20039;-72
2022/08/25 02:23:53;;;;;;;5.60;2.80;;;22.70;86.00;;;;;;5052320;28;20440;-72
2022/08/25 02:26:19;;;;;;;4.85;2.60;;;22.70;86.10;;;;;;5054942;28;20074;-72
2022/08/25 02:28:46;;;;;;;3.78;2.47;;;22.60;86.00;;;;;;5054890;28;20033;-72
2022/08/25 02:31:13;;;;;;;4.50;2.60;;;22.60;86.00;;;;;;5053511;28;20485;-72
2022/08/25 02:33:39;;;;;;;5.88;2.20;;;22.60;86.00;;;;;;5053630;28;20489;-72
2022/08/25 02:36:06;;;;;;;6.10;2.70;;;22.60;85.80;;;;;;5054499;28;20039;-72
2022/08/25 02:38:32;;;;;;;6.25;2.50;;;22.50;85.70;;;;;;5054544;28;20028;-72
2022/08/25 02:40:59;;;;;;;6.35;2.70;;;22.50;85.70;;;;;;5054482;28;20552;-72
2022/08/25 02:43:27;;;;;;;4.57;2.47;;;22.50;85.70;;;;;;5054666;28;20104;-72
2022/08/25 02:45:56;;;;;;;3.72;2.72;;;22.50;85.70;;;;;;5054407;28;20032;-72
2022/08/25 02:48:22;;;;;;;5.13;2.70;;;22.50;85.80;;;;;;5054624;28;20032;-72
2022/08/25 02:50:53;;;;;;;3.67;2.30;;;22.40;85.90;;;;;;5054218;28;20470;-72
2022/08/25 02:53:19;;;;;;;7.18;3.20;;;22.40;85.80;;;;;;5054317;28;20440;-70
2022/08/25 02:55:46;;;;;;;7.38;2.72;;;22.30;85.70;;;;;;5054129;28;20025;-71
2022/08/25 02:58:13;;;;;;;5.18;2.58;;;22.30;85.60;;;;;;5054201;28;20029;-70
2022/08/25 03:00:39;;;;;;;3.97;2.63;;;22.30;85.50;;;;;;5052893;28;20025;-71
2022/08/25 03:03:06;;;;;;;6.10;3.10;;;22.30;85.50;;;;;;5054152;28;20032;-71
2022/08/25 03:05:32;;;;;;;6.28;2.85;;;22.30;85.40;;;;;;5054153;28;20464;-71
2022/08/25 03:07:58;;;;;;;4.40;2.47;;;22.30;85.30;;;;;;5054091;28;20052;-71
2022/08/25 03:10:25;;;;;;;3.85;2.45;;;22.30;85.30;;;;;;5053815;28;20090;-71
2022/08/25 03:12:51;;;;;;;5.88;2.40;;;22.30;85.30;;;;;;5052743;28;20033;-71
2022/08/25 03:15:17;;;;;;;5.07;2.50;;;22.20;85.10;;;;;;5053899;28;20090;-71
2022/08/25 03:17:44;;;;;;;4.63;2.80;;;22.20;85.20;;;;;;5052563;28;20117;-71
2022/08/25 03:20:11;;;;;;;4.63;2.60;;;22.20;85.20;;;;;;5053866;28;20029;-71
2022/08/25 03:22:37;;;;;;;13.82;2.85;;;22.20;85.30;;;;;;5053869;28;20112;-71
2022/08/25 03:27:50;;;;;;;6.03;2.70;;;22.20;85.30;;;;;;5053584;28;20103;-70
2022/08/25 03:30:17;;;;;;;5.35;3.00;;;22.10;85.30;;;;;;5053303;28;20035;-70
2022/08/25 03:32:43;;;;;;;4.72;2.80;;;22.10;85.40;;;;;;5053394;28;20037;-70
2022/08/25 03:35:09;;;;;;;5.82;2.95;;;22.10;85.50;;;;;;5052733;28;20086;-71
2022/08/25 03:37:36;;;;;;;6.57;2.58;;;22.00;85.40;;;;;;5053233;28;20112;-70
2022/08/25 03:40:06;;;;;;;8.60;2.47;;;22.10;85.40;;;;;;5053363;28;20166;-71
2022/08/25 03:42:32;;;;;;;7.82;2.85;;;22.10;85.30;;;;;;5051967;28;20033;-71
2022/08/25 03:44:58;;;;;;;4.30;2.70;;;22.10;85.20;;;;;;5053151;28;20444;-71
2022/08/25 03:47:25;;;;;;;5.82;2.90;;;22.10;85.30;;;;;;5053132;28;20063;-70
2022/08/25 03:49:51;;;;;;;4.40;2.83;;;22.10;85.40;;;;;;5052992;28;20021;-71
2022/08/25 03:52:17;;;;;;;6.18;2.63;;;22.10;85.40;;;;;;5053646;28;20036;-71
2022/08/25 03:54:43;;;;;;;5.07;2.53;;;22.10;85.40;;;;;;5051713;28;20554;-70
2022/08/25 03:57:10;;;;;;;5.53;2.85;;;22.00;85.50;;;;;;5053028;28;20482;-71
2022/08/25 03:59:39;;;;;;;4.38;2.47;;;22.00;85.80;;;;;;5052691;28;20029;-71
2022/08/25 04:02:05;;;;;;;8.40;3.00;;;22.00;86.00;;;;;;5052831;28;20620;-70
2022/08/25 04:04:32;;;;;;;5.28;2.78;;;22.00;86.10;;;;;;5052874;28;20108;-70
2022/08/25 04:06:58;;;;;;;4.93;3.00;;;22.00;86.30;;;;;;5051480;28;20025;-71
2022/08/25 04:09:27;;;;;;;7.95;3.00;;;21.90;86.40;;;;;;5052640;28;20021;-71
2022/08/25 04:11:56;;;;;;;9.02;2.97;;;21.90;86.60;;;;;;5052921;28;20670;-71
2022/08/25 04:14:22;;;;;;;5.43;2.83;;;21.90;86.80;;;;;;5052663;28;20029;-70
2022/08/25 04:16:48;;;;;;;7.78;3.17;;;21.90;86.80;;;;;;5052624;28;20060;-70
2022/08/25 04:19:14;;;;;;;8.48;4.00;;;21.90;87.00;;;;;;5052542;28;20491;-70
2022/08/25 04:21:41;;;;;;;11.90;4.70;;;21.90;87.10;;;;;;5052509;28;20111;-71
2022/08/25 04:24:10;;;;;;;6.43;3.70;;;21.80;87.10;;;;;;5052601;28;20404;-70
2022/08/25 04:26:42;;;;;;;5.47;3.17;;;21.80;87.40;;;;;;5052615;28;20053;-70
2022/08/25 04:29:10;;;;;;;5.97;3.65;;;21.80;87.70;;;;;;5052440;28;20028;-70
2022/08/25 04:31:43;;;;;;;5.47;2.95;;;21.80;87.80;;;;;;5052429;28;20035;-70
2022/08/25 04:34:09;;;;;;;7.90;3.75;;;21.80;88.00;;;;;;5052328;28;20043;-71
2022/08/25 04:36:35;;;;;;;9.32;3.47;;;21.80;88.00;;;;;;5052187;28;20032;-71
2022/08/25 04:39:02;;;;;;;7.78;3.75;;;21.80;88.10;;;;;;5052043;28;20079;-70
2022/08/25 04:41:30;;;;;;;7.97;4.05;;;21.80;88.20;;;;;;5050771;28;20547;-70
2022/08/25 04:43:57;;;;;;;6.65;3.70;;;21.80;88.20;;;;;;5052071;28;20041;-70
2022/08/25 04:46:27;;;;;;;8.07;3.90;;;21.80;88.30;;;;;;5051971;28;20033;-71
2022/08/25 04:48:55;;;;;;;8.18;3.92;;;21.80;88.40;;;;;;5052030;28;20043;-70
2022/08/25 04:51:23;;;;;;;7.73;3.40;;;21.80;88.40;;;;;;5051881;28;20037;-70
2022/08/25 04:53:51;;;;;;;7.53;3.55;;;21.80;88.50;;;;;;5051959;28;20291;-70
2022/08/25 04:56:19;;;;;;;9.55;4.15;;;21.80;88.60;;;;;;5051859;28;20095;-70
2022/08/25 04:58:46;;;;;;;8.90;3.88;;;21.80;88.70;;;;;;5051720;28;20536;-71
2022/08/25 05:01:15;;;;;;;7.60;3.67;;;21.80;88.80;;;;;;5051635;28;20052;-71
2022/08/25 05:03:41;;;;;;;8.43;4.25;;;21.80;88.90;;;;;;5051889;28;20033;-71
2022/08/25 05:06:07;;;;;;;7.20;4.10;;;21.70;89.10;;;;;;5050377;28;20133;-71
2022/08/25 05:08:33;;;;;;;9.30;4.05;;;21.80;89.20;;;;;;5051526;28;20048;-71
2022/08/25 05:11:05;;;;;;;8.75;4.13;;;21.80;89.30;;;;;;5051709;28;20025;-71
2022/08/25 05:13:31;;;;;;;6.82;3.60;;;21.80;90.00;;;;;;5051553;28;20474;-70
2022/08/25 05:15:58;;;;;;;9.75;3.88;;;21.80;90.10;;;;;;5051425;28;20033;-73
2022/08/25 05:18:27;;;;;;;6.70;3.60;;;21.80;90.20;;;;;;5051453;28;20044;-70
2022/08/25 05:20:53;;;;;;;5.72;3.38;;;21.80;90.20;;;;;;5049909;28;20392;-71
2022/08/25 05:23:22;;;;;;;6.63;3.80;;;21.80;90.20;;;;;;5051721;28;20029;-70
2022/08/25 05:25:49;;;;;;;8.13;4.13;;;21.80;90.30;;;;;;5051440;28;20057;-71
2022/08/25 05:28:16;;;;;;;11.07;3.90;;;21.80;90.30;;;;;;5051265;28;20102;-70
2022/08/25 05:30:43;;;;;;;10.38;4.50;;;21.80;90.40;;;;;;5051101;28;20037;-70
2022/08/25 05:33:10;;;;;;;13.57;4.35;;;21.90;90.40;;;;;;5051434;28;20111;-70
2022/08/25 05:35:37;;;;;;;8.45;4.47;;;21.90;90.40;;;;;;5051815;28;20029;-71
2022/08/25 05:38:05;;;;;;;8.18;4.20;;;22.00;90.50;;;;;;5052895;28;20493;-70
2022/08/25 05:40:31;;;;;;;11.80;4.25;;;22.00;90.60;;;;;;5050750;28;20109;-70
2022/08/25 05:42:57;;;;;;;13.50;4.88;;;22.00;90.60;;;;;;5051167;28;20035;-71
2022/08/25 05:45:24;;;;;;;11.30;4.13;;;22.00;90.60;;;;;;5051110;28;20033;-71
2022/08/25 05:47:50;;;;;;;11.20;4.35;;;22.00;90.70;;;;;;5050717;28;20035;-71
2022/08/25 05:50:16;;;;;;;12.18;4.80;;;22.10;90.70;;;;;;5049500;28;20116;-70
2022/08/25 05:52:43;;;;;;;8.57;4.40;;;22.10;90.60;;;;;;5050961;28;20066;-70
2022/08/25 05:55:10;;;;;;;14.60;4.63;;;22.10;90.60;;;;;;5050891;28;20070;-71
2022/08/25 05:57:36;;;;;;;11.25;5.53;;;22.20;90.60;;;;;;5050633;28;20032;-70
2022/08/25 06:00:06;;;;;;;8.85;4.45;;;22.20;90.50;;;;;;5050370;28;20071;-70
2022/08/25 06:02:42;;;;;;;8.13;4.93;;;22.30;90.50;;;;;;5050933;28;20033;-70
2022/08/25 06:05:12;;;;;;;14.43;5.60;;;22.30;90.40;;;;;;5051083;28;20029;-70
2022/08/25 06:07:38;;;;;;;12.10;5.88;;;22.40;90.40;;;;;;5051037;28;20083;-71
2022/08/25 06:10:07;;;;;;;11.73;5.50;;;22.30;90.30;;;;;;5050578;28;20151;-71
2022/08/25 06:12:34;;;;;;;9.65;5.22;;;22.40;90.30;;;;;;5050718;28;20037;-70
2022/08/25 06:15:02;;;;;;;9.85;5.65;;;22.50;90.30;;;;;;5050824;28;20048;-71
2022/08/25 06:17:28;;;;;;;12.00;5.97;;;22.50;90.30;;;;;;5050457;28;20037;-71
2022/08/25 06:19:54;;;;;;;15.10;7.32;;;22.50;90.30;;;;;;5050358;28;20037;-71
2022/08/25 06:22:20;;;;;;;15.25;7.40;;;22.60;90.20;;;;;;5050886;28;20037;-71
2022/08/25 06:24:47;;;;;;;11.90;6.50;;;22.60;90.10;;;;;;5049208;28;20482;-71
2022/08/25 06:27:13;;;;;;;12.82;7.00;;;22.70;90.20;;;;;;5050527;28;20515;-71
2022/08/25 06:29:39;;;;;;;12.40;5.97;;;22.70;90.20;;;;;;5050523;28;20083;-71
2022/08/25 06:32:05;;;;;;;14.10;5.88;;;22.70;90.10;;;;;;5049171;28;20477;-71
2022/08/25 06:34:31;;;;;;;13.82;5.93;;;22.80;90.10;;;;;;5050338;28;20099;-70
2022/08/25 06:36:57;;;;;;;13.35;5.25;;;22.80;90.00;;;;;;5050260;28;20037;-70
2022/08/25 06:39:23;;;;;;;17.20;6.25;;;22.80;90.10;;;;;;5050262;28;20536;-70
2022/08/25 06:41:54;;;;;;;11.82;5.38;;;22.90;90.00;;;;;;5050244;28;20039;-70
2022/08/25 06:44:20;;;;;;;9.85;5.43;;;22.90;90.00;;;;;;5050458;28;20108;-71
2022/08/25 06:46:46;;;;;;;8.77;5.38;;;22.90;90.00;;;;;;5050080;28;20562;-71
2022/08/25 06:49:12;;;;;;;10.45;5.60;;;23.00;90.00;;;;;;5050125;28;20029;-71
2022/08/25 06:51:38;;;;;;;12.82;6.10;;;23.00;89.90;;;;;;5050402;28;20056;-71
2022/08/25 06:54:11;;;;;;;10.13;5.15;;;23.10;89.80;;;;;;5050328;28;20425;-71
2022/08/25 06:56:39;;;;;;;12.90;6.00;;;23.10;89.60;;;;;;5050147;28;20474;-71
2022/08/25 06:59:07;;;;;;;12.52;5.75;;;23.20;89.40;;;;;;5048873;28;20482;-71
2022/08/25 07:01:33;;;;;;;14.80;5.72;;;23.20;89.30;;;;;;5050117;28;20091;-71
2022/08/25 07:04:02;;;;;;;10.90;5.75;;;23.20;89.10;;;;;;5048675;28;20075;-71
2022/08/25 07:06:30;;;;;;;11.35;4.78;;;23.30;89.10;;;;;;5050172;28;20032;-71
2022/08/25 07:08:56;;;;;;;10.63;5.22;;;23.30;89.20;;;;;;5050078;28;20029;-71
2022/08/25 07:11:23;;;;;;;9.52;5.40;;;23.40;89.20;;;;;;5052159;28;20025;-71
2022/08/25 07:13:49;;;;;;;11.68;5.53;;;23.40;89.10;;;;;;5053856;28;20489;-71
2022/08/25 07:16:17;;;;;;;11.73;6.03;;;23.40;88.90;;;;;;5053775;28;20059;-71
2022/08/25 07:18:44;;;;;;;8.40;5.05;;;23.50;88.90;;;;;;5053355;28;20033;-71
2022/08/25 07:21:11;;;;;;;9.48;5.00;;;23.50;88.70;;;;;;5053489;28;20025;-71
2022/08/25 07:23:38;;;;;;;7.32;4.40;;;23.50;88.50;;;;;;5053651;28;20553;-71
2022/08/25 07:26:13;;;;;;;7.65;4.47;;;23.60;88.20;;;;;;5053473;28;20100;-71
2022/08/25 07:28:40;;;;;;;6.38;4.03;;;23.60;88.20;;;;;;5053421;28;20021;-71
2022/08/25 07:31:06;;;;;;;7.22;4.38;;;23.70;88.20;;;;;;5053665;28;20032;-71
2022/08/25 07:33:32;;;;;;;6.78;3.92;;;23.70;88.10;;;;;;5054018;28;20025;-71
2022/08/25 07:35:58;;;;;;;8.85;4.93;;;23.70;88.10;;;;;;5064404;22;20065;-71
2022/08/25 07:38:24;;;;;;;6.22;4.65;;;23.70;87.90;;;;;;5053472;28;20029;-71
2022/08/25 07:40:53;;;;;;;6.65;4.45;;;23.80;87.70;;;;;;5052969;28;20048;-71
2022/08/25 07:43:21;;;;;;;8.98;5.00;;;23.80;87.60;;;;;;5053287;28;20093;-71
2022/08/25 07:45:47;;;;;;;9.20;4.85;;;23.80;87.40;;;;;;5052888;28;20044;-71
2022/08/25 07:48:14;;;;;;;7.05;4.50;;;23.90;87.40;;;;;;5053233;28;20025;-71
2022/08/25 07:50:44;;;;;;;6.07;4.28;;;23.90;87.40;;;;;;5051640;28;20112;-71
2022/08/25 07:53:11;;;;;;;9.70;4.85;;;23.90;87.30;;;;;;5053166;28;20025;-71
2022/08/25 07:55:37;;;;;;;5.27;3.97;;;24.00;86.90;;;;;;5053249;28;20079;-71
2022/08/25 07:58:08;;;;;;;5.53;4.03;;;24.00;86.90;;;;;;5052974;28;20383;-72
2022/08/25 08:00:36;;;;;;;6.00;4.13;;;24.00;86.90;;;;;;5052676;28;20033;-72
2022/08/25 08:03:04;;;;;;;5.25;3.80;;;24.00;87.00;;;;;;5052884;28;20060;-72
2022/08/25 08:05:31;;;;;;;5.25;3.80;;;24.10;87.00;;;;;;5053056;28;20032;-72
2022/08/25 08:07:57;;;;;;;6.18;4.10;;;24.10;86.90;;;;;;5052605;28;20021;-72
2022/08/25 08:10:24;;;;;;;5.88;4.00;;;24.10;86.80;;;;;;5052492;28;20032;-72
2022/08/25 08:12:51;;;;;;;6.53;4.20;;;24.10;86.90;;;;;;5053160;28;20044;-72
2022/08/25 08:15:18;;;;;;;5.97;4.18;;;24.20;87.30;;;;;;5052689;28;20025;-72
2022/08/25 08:17:44;;;;;;;6.40;4.68;;;24.20;87.10;;;;;;5052427;28;20112;-72
2022/08/25 08:20:10;;;;;;;6.35;4.28;;;24.20;87.00;;;;;;5052315;28;20124;-72
2022/08/25 08:22:39;;;;;;;5.57;4.13;;;24.20;86.90;;;;;;5052228;28;20537;-72
2022/08/25 08:25:07;;;;;;;4.90;4.05;;;24.30;86.60;;;;;;5052441;28;20025;-72
2022/08/25 08:27:33;;;;;;;4.90;3.40;;;24.30;86.60;;;;;;5052384;28;20033;-72
2022/08/25 08:30:00;;;;;;;5.85;4.03;;;24.30;86.50;;;;;;5052389;28;20043;-72
2022/08/25 08:32:26;;;;;;;9.27;3.92;;;24.30;86.10;;;;;;5052282;28;20036;-72
2022/08/25 08:34:52;;;;;;;6.10;3.75;;;24.40;86.10;;;;;;5052243;28;20033;-72
2022/08/25 08:37:19;;;;;;;5.03;3.90;;;24.40;86.20;;;;;;5052456;28;20076;-72
2022/08/25 08:39:45;;;;;;;5.07;3.40;;;24.40;86.10;;;;;;5052427;28;20095;-72
2022/08/25 08:42:28;;;;;;;5.57;3.65;;;24.40;86.20;;;;;;5051969;28;20509;-72
2022/08/25 08:45:02;;;;;;;4.97;3.65;;;24.40;86.10;;;;;;5052003;28;20025;-72
2022/08/25 08:48:10;;;;;;;4.10;3.38;;;24.50;86.10;;;;;;5051818;28;20481;-72
2022/08/25 08:50:55;;;;;;;9.82;3.80;;;24.50;85.30;;;;;;5051903;28;20021;-72
2022/08/25 08:53:24;;;;;;;6.28;4.15;;;24.50;85.10;;;;;;5050650;28;20029;-72
2022/08/25 08:56:06;;;;;;;5.25;3.58;;;24.60;84.70;;;;;;5051938;28;20032;-72
2022/08/25 08:58:42;;;;;;;5.82;3.83;;;24.60;84.70;;;;;;5051711;28;20067;-72
2022/08/25 09:01:12;;;;;;;5.07;3.50;;;24.60;84.70;;;;;;5051745;28;20075;-72
2022/08/25 09:03:39;;;;;;;5.88;3.67;;;24.60;84.50;;;;;;5051903;28;20021;-72
2022/08/25 09:06:12;;;;;;;6.47;4.10;;;24.70;83.90;;;;;;5051702;28;20102;-72
2022/08/25 09:08:43;;;;;;;6.15;3.83;;;24.70;83.80;;;;;;5050144;28;20029;-71
2022/08/25 09:11:43;;;;;;;5.43;3.70;;;24.80;84.00;;;;;;5051517;28;20029;-72
2022/08/25 09:14:09;;;;;;;5.07;3.60;;;24.80;84.20;;;;;;5050395;28;20025;-71
2022/08/25 09:16:53;;;;;;;7.28;3.53;;;24.80;84.00;;;;;;5051362;28;20048;-72
2022/08/25 09:19:37;;;;;;;5.57;3.35;;;24.80;83.10;;;;;;5050020;28;20033;-72
2022/08/25 09:22:18;;;;;;;5.57;3.50;;;24.90;82.90;;;;;;5051462;28;20116;-72
2022/08/25 09:25:05;;;;;;;4.45;3.50;;;25.00;82.70;;;;;;5051298;28;20051;-72
2022/08/25 09:27:43;;;;;;;5.15;3.58;;;25.00;82.80;;;;;;5051276;28;20112;-72
2022/08/25 09:30:13;;;;;;;5.03;3.53;;;25.00;82.70;;;;;;5051258;28;20040;-72
2022/08/25 09:32:48;;;;;;;6.05;3.63;;;25.00;83.10;;;;;;5050856;28;20040;-71
2022/08/25 09:35:21;;;;;;;4.82;3.65;;;25.00;82.90;;;;;;5051074;28;20079;-71
2022/08/25 09:37:59;;;;;;;5.00;3.85;;;25.00;83.20;;;;;;5051133;28;20032;-71
2022/08/25 09:40:30;;;;;;;6.47;4.07;;;25.10;82.10;;;;;;5050867;28;20036;-71
2022/08/25 09:42:58;;;;;;;6.13;3.63;;;25.10;82.30;;;;;;5049644;28;20041;-71
2022/08/25 09:45:59;;;;;;;7.07;4.05;;;25.20;82.30;;;;;;5051316;28;20074;-71
2022/08/25 09:48:46;;;;;;;5.43;3.38;;;25.20;82.70;;;;;;5050091;28;20102;-71
2022/08/25 09:51:27;;;;;;;4.85;3.40;;;25.20;81.70;;;;;;5051123;28;20450;-71
2022/08/25 09:54:12;;;;;;;7.55;3.70;;;25.20;81.80;;;;;;5051035;28;20163;-71
2022/08/25 09:56:50;;;;;;;4.80;3.60;;;25.30;82.10;;;;;;5050882;28;20108;-71
2022/08/25 09:59:28;;;;;;;4.90;3.75;;;25.30;81.60;;;;;;5051017;28;20090;-71
2022/08/25 10:02:01;;;;;;;8.82;4.10;;;25.40;81.80;;;;;;5050829;28;20474;-71
2022/08/25 10:04:37;;;;;;;7.97;4.55;;;25.40;80.80;;;;;;5050863;28;20021;-71
2022/08/25 10:07:31;;;;;;;12.70;5.15;;;25.50;80.90;;;;;;5049427;28;20021;-71
2022/08/25 10:10:00;;;;;;;11.23;5.03;;;25.60;80.60;;;;;;5050724;28;20033;-71
2022/08/25 10:12:39;;;;;;;8.60;4.63;;;25.70;80.20;;;;;;5050727;28;20025;-71
2022/08/25 10:15:27;;;;;;;6.30;3.88;;;25.80;80.00;;;;;;5051097;28;20029;-71
2022/08/25 10:17:54;;;;;;;5.35;3.83;;;25.80;79.50;;;;;;5050527;28;20064;-71
2022/08/25 10:20:24;;;;;;;4.70;3.75;;;25.80;80.40;;;;;;5050265;28;20493;-71
2022/08/25 10:22:50;;;;;;;7.38;4.45;;;25.80;80.50;;;;;;5050562;28;20071;-71
2022/08/25 10:25:31;;;;;;;6.18;4.20;;;25.80;80.50;;;;;;5050762;28;20385;-71
2022/08/25 10:28:25;;;;;;;9.20;6.03;;;25.80;80.80;;;;;;5050455;28;20053;-71
2022/08/25 10:31:22;;;;;;;7.32;4.30;;;25.80;80.40;;;;;;5050653;28;20497;-71
2022/08/25 10:34:07;;;;;;;5.50;4.05;;;25.80;81.70;;;;;;5050597;28;20021;-71
2022/08/25 10:37:03;;;;;;;6.43;3.95;;;25.70;82.50;;;;;;5049091;28;20490;-71
2022/08/25 10:39:42;;;;;;;5.40;4.13;;;25.60;80.60;;;;;;5049161;28;20083;-71
2022/08/25 10:42:46;;;;;;;7.18;4.50;;;25.60;81.00;;;;;;5050410;28;20025;-71
2022/08/25 10:48:29;;;;;;;7.38;4.50;;;25.80;78.70;;;;;;5054411;28;20474;-71
2022/08/25 10:51:34;;;;;;;4.93;4.10;;;26.00;77.80;;;;;;5054011;28;20033;-71
2022/08/25 10:54:30;;;;;;;6.13;3.97;;;26.00;78.20;;;;;;5054335;28;20029;-71
2022/08/25 10:57:20;;;;;;;6.85;3.92;;;26.00;78.30;;;;;;5054269;28;20115;-71
2022/08/25 10:59:58;;;;;;;6.82;4.15;;;26.20;78.70;;;;;;5054148;28;20029;-71
2022/08/25 11:02:37;;;;;;;5.43;3.95;;;26.20;78.40;;;;;;5054133;28;20025;-72
2022/08/25 11:05:24;;;;;;;5.45;4.10;;;26.20;78.00;;;;;;5054077;28;20541;-71
2022/08/25 11:07:57;;;;;;;7.05;4.00;;;26.30;77.80;;;;;;5053862;28;20029;-71
2022/08/25 11:10:36;;;;;;;4.97;3.80;;;26.40;77.20;;;;;;5053743;28;20035;-71
2022/08/25 11:13:14;;;;;;;5.13;3.70;;;26.30;77.60;;;;;;5053878;28;20033;-71
2022/08/25 11:15:52;;;;;;;8.27;4.50;;;26.20;78.80;;;;;;5053793;28;20033;-71
2022/08/25 11:18:20;;;;;;;7.45;4.38;;;26.30;77.40;;;;;;5053771;28;20108;-71
2022/08/25 11:21:08;;;;;;;7.35;4.00;;;26.40;76.90;;;;;;5053672;28;20578;-71
2022/08/25 11:23:44;;;;;;;;;;;26.50;76.80;;;;;;5054355;28;20044;-71
2022/08/25 11:26:12;;;;;;;4.78;3.60;;;26.70;75.90;;;;;;5053540;28;19952;-71
2022/08/25 11:29:01;;;;;;;5.65;3.38;;;26.80;75.30;;;;;;5053425;28;20071;-72
2022/08/25 11:31:28;;;;;;;7.03;3.30;;;27.00;74.30;;;;;;5052194;28;20037;-71
2022/08/25 11:33:55;;;;;;;4.90;3.35;;;27.10;73.80;;;;;;5053555;28;20032;-71
2022/08/25 11:36:39;;;;;;;5.47;4.38;;;27.10;73.70;;;;;;5053428;28;20032;-71
2022/08/25 11:39:11;;;;;;;4.90;3.25;;;27.10;73.80;;;;;;5053334;28;20029;-72
2022/08/25 11:41:54;;;;;;;6.70;4.63;;;27.20;73.30;;;;;;5053258;28;20405;-71
2022/08/25 11:44:25;;;;;;;5.63;3.67;;;27.30;73.50;;;;;;5053326;28;20497;-72
2022/08/25 11:47:11;;;;;;;6.13;3.55;;;27.40;72.70;;;;;;5053550;28;20021;-71
2022/08/25 11:50:02;;;;;;;6.80;4.15;;;27.40;72.60;;;;;;5052987;28;20536;-71
2022/08/25 11:52:34;;;;;;;5.50;3.50;;;27.40;72.00;;;;;;5053236;28;20420;-71
2022/08/25 11:55:30;;;;;;;5.50;4.57;;;27.30;73.10;;;;;;5053095;28;20059;-71
2022/08/25 11:58:20;;;;;;;4.32;3.90;;;27.30;72.40;;;;;;5051011;28;20037;-71
2022/08/25 12:00:47;;;;;;;7.30;4.57;;;27.20;72.90;;;;;;5052962;28;20044;-71
2022/08/25 12:03:31;;;;;;;7.18;4.60;;;27.10;74.00;;;;;;5052873;28;20021;-71
2022/08/25 12:06:18;;;;;;;9.05;4.82;;;27.00;73.50;;;;;;5052459;28;20020;-71
2022/08/25 12:08:48;;;;;;;8.05;4.50;;;27.10;73.20;;;;;;5052732;28;20075;-71
2022/08/25 12:11:37;;;;;;;7.38;4.35;;;27.00;74.00;;;;;;5052762;28;20071;-71
2022/08/25 12:14:20;;;;;;;6.65;3.88;;;26.90;73.70;;;;;;5052751;28;20017;-71
2022/08/25 12:16:53;;;;;;;5.53;3.30;;;27.00;73.00;;;;;;5052617;28;20108;-71
2022/08/25 12:19:36;;;;;;;4.70;3.60;;;26.90;73.40;;;;;;5052480;28;20021;-71
2022/08/25 12:22:01;;;;;;;5.15;3.63;;;26.80;73.70;;;;;;5052512;28;20103;-71
2022/08/25 12:24:42;;;;;;;4.72;3.78;;;26.70;74.80;;;;;;5051303;28;20481;-71
2022/08/25 12:27:09;;;;;;;6.47;3.42;;;26.70;74.80;;;;;;5052518;28;20048;-71
2022/08/25 12:29:49;;;;;;;5.45;3.50;;;26.90;73.00;;;;;;5052235;28;20036;-71
2022/08/25 12:32:27;;;;;;;5.38;3.60;;;27.10;72.20;;;;;;5052683;28;20033;-72
2022/08/25 12:35:14;;;;;;;4.40;3.53;;;27.30;71.70;;;;;;5051044;28;20044;-72
2022/08/25 12:38:04;;;;;;;4.78;3.40;;;27.30;71.90;;;;;;5052455;28;20037;-71
2022/08/25 12:40:37;;;;;;;6.63;3.65;;;27.30;71.90;;;;;;5050937;28;20665;-72
2022/08/25 12:43:20;;;;;;;5.15;4.00;;;27.40;72.00;;;;;;5050904;28;20087;-72
2022/08/25 12:45:49;;;;;;;5.82;3.90;;;27.50;72.00;;;;;;5051976;28;20031;-72
2022/08/25 12:48:27;;;;;;;5.60;3.83;;;27.60;71.60;;;;;;5051905;28;20021;-72
2022/08/25 12:51:07;;;;;;;5.03;4.00;;;27.50;72.40;;;;;;5051984;28;20032;-72
2022/08/25 12:53:38;;;;;;;4.28;3.70;;;27.50;71.80;;;;;;5051985;28;20025;-72
2022/08/25 12:56:17;;;;;;;5.53;3.95;;;27.40;72.20;;;;;;5051878;28;20025;-72
2022/08/25 12:59:02;;;;;;;5.22;3.15;;;27.50;71.30;;;;;;5051909;28;20474;-72
2022/08/25 13:01:53;;;;;;;6.80;5.30;;;27.60;70.90;;;;;;5050328;28;20037;-72
2022/08/25 13:04:26;;;;;;;4.80;3.95;;;27.60;70.50;;;;;;5051754;28;20366;-72
2022/08/25 13:07:08;;;;;;;4.97;3.45;;;27.60;70.30;;;;;;5051921;28;20082;-72
2022/08/25 13:09:58;;;;;;;6.18;3.40;;;27.70;69.90;;;;;;5050664;28;20079;-72
2022/08/25 13:13:09;;;;;;;5.72;3.90;;;27.80;70.20;;;;;;5051796;28;20036;-72